Time;durP1;ratioP1;P1;durP2;ratioP2;P2;SDS_P1;SDS_P2;PMS_P1;PMS_P2;Temp;Humidity;BMP_temperature;BMP_pressure;BME280_temperature;BME280_humidity;BME280_pressure;Samples;Min_cycle;Max_cycle;Signal;HPM_P1;HPM_P2
2023/10/15 00:01:05;;;;;;;15.50;0.90;;;;;;;9.03;66.80;98433.16;5038238;28;20051;-75
2023/10/15 00:03:33;;;;;;;7.85;0.52;;;;;;;9.05;66.95;98426.97;5035604;28;20144;-77
2023/10/15 00:06:00;;;;;;;5.47;0.40;;;;;;;9.02;66.66;98424.50;5034963;28;20044;-78
2023/10/15 00:08:27;;;;;;;4.18;0.43;;;;;;;9.03;66.99;98426.19;5038449;28;20095;-76
2023/10/15 00:10:55;;;;;;;4.63;0.35;;;;;;;9.04;66.79;98435.69;5035751;28;20044;-76
2023/10/15 00:13:22;;;;;;;7.35;0.30;;;;;;;8.99;67.10;98424.66;5034843;28;20051;-76
2023/10/15 00:15:49;;;;;;;5.30;0.43;;;;;;;9.00;67.32;98439.38;5041912;28;20123;-75
2023/10/15 00:18:15;;;;;;;4.90;1.10;;;;;;;9.01;67.11;98435.84;5038715;28;20049;-75
2023/10/15 00:20:42;;;;;;;13.38;0.43;;;;;;;9.01;67.22;98435.84;5038866;28;20476;-76
2023/10/15 00:23:13;;;;;;;8.10;0.30;;;;;;;8.98;67.49;98430.78;5041415;28;20040;-76
2023/10/15 00:25:47;;;;;;;3.47;0.40;;;;;;;8.98;67.76;98431.63;5039167;28;20049;-75
2023/10/15 00:28:15;;;;;;;5.15;0.35;;;;;;;8.93;67.46;98427.56;5040553;28;20049;-76
2023/10/15 00:30:43;;;;;;;4.88;0.35;;;;;;;8.98;67.33;98442.03;5043182;28;20507;-75
2023/10/15 00:33:11;;;;;;;7.38;0.40;;;;;;;8.99;67.61;98445.47;5037458;28;20045;-75
2023/10/15 00:35:40;;;;;;;13.20;0.50;;;;;;;8.98;67.95;98438.59;5040832;28;20057;-75
2023/10/15 00:38:11;;;;;;;6.75;0.47;;;;;;;8.98;67.39;98441.19;5037839;28;20130;-75
2023/10/15 00:40:38;;;;;;;7.18;0.35;;;;;;;8.96;67.88;98437.81;5040327;28;20492;-76
2023/10/15 00:43:05;;;;;;;9.23;0.77;;;;;;;8.97;68.03;98439.53;5037671;28;20055;-76
2023/10/15 00:45:43;;;;;;;7.68;0.55;;;;;;;8.96;67.82;98437.81;5040707;28;20084;-76
2023/10/15 00:48:12;;;;;;;7.63;0.60;;;;;;;8.97;67.71;98447.34;5036614;28;20049;-76
2023/10/15 00:50:42;;;;;;;14.60;3.25;;;;;;;8.96;67.80;98443.03;5041966;28;20050;-75
2023/10/15 00:53:22;;;;;;;16.60;4.45;;;;;;;8.94;67.82;98450.94;5040041;28;20132;-75
2023/10/15 00:55:54;;;;;;;25.00;6.20;;;;;;;8.95;68.04;98452.59;5041921;28;20045;-75
2023/10/15 00:58:33;;;;;;;24.65;7.45;;;;;;;8.95;68.12;98467.38;5037042;28;20052;-75
2023/10/15 01:01:20;;;;;;;21.30;8.23;;;;;;;8.97;68.36;98470.78;5038165;28;20046;-76
2023/10/15 01:03:53;;;;;;;29.42;9.75;;;;;;;8.96;68.33;98469.91;5035505;28;20049;-75
2023/10/15 01:06:29;;;;;;;23.58;10.98;;;;;;;8.96;68.71;98456.03;5039740;28;20052;-75
2023/10/15 01:08:58;;;;;;;31.33;11.52;;;;;;;8.97;68.58;98463.78;5041834;28;20426;-75
2023/10/15 01:11:28;;;;;;;31.95;11.10;;;;;;;8.98;68.34;98467.22;5037137;28;21409;-75
2023/10/15 01:13:55;;;;;;;26.02;10.65;;;;;;;8.99;68.34;98463.69;5042589;28;20060;-76
2023/10/15 01:16:27;;;;;;;32.63;14.13;;;;;;;8.95;68.50;98462.19;5033452;28;20144;-75
2023/10/15 01:18:59;;;;;;;30.10;13.68;;;;;;;9.00;68.82;98475.81;5040369;28;20045;-75
2023/10/15 01:21:29;;;;;;;47.33;18.52;;;;;;;8.99;68.84;98463.69;5039727;28;20048;-75
2023/10/15 01:24:05;;;;;;;36.10;16.90;;;;;;;9.02;68.64;98484.38;5039074;28;20751;-75
2023/10/15 01:26:38;;;;;;;43.92;17.27;;;;;;;9.01;68.94;98469.69;5041208;28;20135;-75
2023/10/15 01:29:07;;;;;;;39.45;19.05;;;;;;;9.03;68.59;98473.06;5037745;28;20076;-75
2023/10/15 01:31:40;;;;;;;49.40;18.52;;;;;;;9.04;68.82;98481.72;5044722;28;20049;-75
2023/10/15 01:34:09;;;;;;;49.60;21.73;;;;;;;8.99;68.90;98479.31;5040258;28;20048;-76
2023/10/15 01:36:38;;;;;;;44.63;19.25;;;;;;;9.05;68.96;98489.47;5041891;28;20087;-75
2023/10/15 01:39:12;;;;;;;39.47;18.65;;;;;;;9.06;68.67;98493.75;5037701;28;20091;-72
2023/10/15 01:41:41;;;;;;;39.10;15.95;;;;;;;9.07;69.09;98500.63;5037935;28;20041;-72
2023/10/15 01:44:10;;;;;;;35.22;15.10;;;;;;;9.09;69.33;98503.19;5039088;28;20411;-72
2023/10/15 01:46:48;;;;;;;34.90;13.93;;;;;;;9.09;68.92;98503.19;5041127;28;20052;-71
2023/10/15 01:49:26;;;;;;;24.33;13.18;;;;;;;9.11;69.30;98506.56;5038488;28;20049;-76
2023/10/15 01:51:55;;;;;;;23.30;11.38;;;;;;;9.01;69.09;98482.72;5038479;28;20049;-75
2023/10/15 01:54:21;;;;;;;20.70;7.10;;;;;;;9.13;68.84;98508.16;5041803;28;20727;-75
2023/10/15 01:56:50;;;;;;;14.30;5.70;;;;;;;9.14;69.12;98520.25;5039029;28;20048;-75
2023/10/15 01:59:19;;;;;;;12.15;4.15;;;;;;;9.13;69.16;98512.50;5040462;28;20040;-76
2023/10/15 02:01:49;;;;;;;12.68;2.55;;;;;;;9.16;69.22;98522.78;5034899;28;20049;-75
2023/10/15 02:04:18;;;;;;;10.40;2.85;;;;;;;9.17;68.94;98529.69;5036278;28;20064;-76
2023/10/15 02:06:45;;;;;;;11.10;2.00;;;;;;;9.17;69.03;98525.31;5038642;28;20522;-76
2023/10/15 02:09:19;;;;;;;7.63;1.23;;;;;;;9.20;69.03;98534.75;5035654;28;20044;-75
2023/10/15 02:11:48;;;;;;;4.90;1.15;;;;;;;9.20;69.04;98534.75;5035555;28;20414;-76
2023/10/15 02:14:23;;;;;;;4.05;0.60;;;;;;;9.18;69.23;98537.41;5038162;28;20057;-75
2023/10/15 02:16:53;;;;;;;5.47;0.40;;;;;;;9.22;68.80;98546.78;5037384;28;20047;-76
2023/10/15 02:19:34;;;;;;;7.10;0.50;;;;;;;9.22;69.37;98544.19;5038030;28;20045;-75
2023/10/15 02:22:01;;;;;;;2.92;0.30;;;;;;;9.24;68.85;98544.94;5041452;28;20069;-76
2023/10/15 02:24:32;;;;;;;2.58;0.30;;;;;;;9.21;68.98;98542.47;5036532;28;20041;-75
2023/10/15 02:26:59;;;;;;;2.35;0.20;;;;;;;9.24;69.01;98557.97;5038408;28;20048;-76
2023/10/15 02:29:36;;;;;;;4.10;0.20;;;;;;;9.27;68.74;98562.19;5040500;28;20049;-76
2023/10/15 02:32:20;;;;;;;3.55;0.30;;;;;;;9.26;69.04;98570.91;5037573;28;20055;-75
2023/10/15 02:34:50;;;;;;;4.85;0.20;;;;;;;9.27;68.70;98582.19;5036683;28;20111;-76
2023/10/15 02:37:18;;;;;;;5.20;0.20;;;;;;;9.28;69.06;98586.47;5038486;28;20049;-75
2023/10/15 02:39:50;;;;;;;3.95;0.10;;;;;;;9.27;69.09;98590.00;5037038;28;20048;-75
2023/10/15 02:42:17;;;;;;;1.73;0.13;;;;;;;9.31;68.36;98599.38;5037800;28;20135;-76
2023/10/15 02:44:50;;;;;;;6.00;1.08;;;;;;;9.31;68.31;98595.00;5041613;28;20045;-74
2023/10/15 02:47:28;;;;;;;1.00;0.00;;;;;;;9.31;68.16;98599.38;5039196;28;20085;-75
2023/10/15 02:50:00;;;;;;;0.80;0.05;;;;;;;9.32;67.48;98603.66;5039694;28;20162;-82
2023/10/15 02:52:35;;;;;;;0.70;0.03;;;;;;;9.30;67.23;98614.13;5050462;28;20130;-84
2023/10/15 02:55:07;;;;;;;0.70;0.00;;;;;;;9.22;66.70;98616.25;5046479;28;20045;-83
2023/10/15 02:57:38;;;;;;;2.80;0.00;;;;;;;9.28;66.31;98622.94;5050184;28;20187;-82
2023/10/15 03:00:18;;;;;;;2.53;0.00;;;;;;;9.26;66.55;98638.66;5039248;28;20053;-73
2023/10/15 03:02:46;;;;;;;0.73;0.00;;;;;;;9.27;66.61;98645.53;5036233;28;20052;-74
2023/10/15 03:05:14;;;;;;;0.20;0.00;;;;;;;9.26;66.16;98653.44;5036541;28;20041;-73
2023/10/15 03:07:43;;;;;;;0.10;0.00;;;;;;;9.24;66.19;98656.94;5036485;28;20051;-73
2023/10/15 03:10:12;;;;;;;0.90;0.00;;;;;;;9.21;65.45;98667.50;5038064;28;20048;-74
2023/10/15 03:12:44;;;;;;;3.60;0.15;;;;;;;9.21;65.33;98672.72;5025921;28;20052;-73
2023/10/15 03:15:17;;;;;;;1.92;0.00;;;;;;;9.18;65.23;98677.25;5036412;28;20569;-73
2023/10/15 03:17:44;;;;;;;0.28;0.00;;;;;;;9.14;65.22;98676.53;5031288;28;20045;-73
2023/10/15 03:20:24;;;;;;;0.70;0.25;;;;;;;9.14;65.12;98689.56;5040247;28;20056;-74
2023/10/15 03:22:52;;;;;;;0.70;0.00;;;;;;;9.10;65.47;98692.38;5031149;28;20045;-73
2023/10/15 03:25:20;;;;;;;3.10;0.05;;;;;;;9.08;65.09;98689.84;5034634;28;20454;-75
2023/10/15 03:27:47;;;;;;;1.65;0.00;;;;;;;9.07;64.84;98698.56;5037535;28;20041;-73
2023/10/15 03:30:22;;;;;;;2.50;0.00;;;;;;;9.06;64.87;98704.69;5034050;28;20053;-74
2023/10/15 03:32:49;;;;;;;0.17;0.00;;;;;;;9.02;64.83;98708.34;5036567;28;20415;-74
2023/10/15 03:35:17;;;;;;;2.45;0.00;;;;;;;9.00;65.04;98715.41;5036320;28;20512;-73
2023/10/15 03:37:47;;;;;;;1.48;0.00;;;;;;;8.97;64.61;98720.75;5035272;28;20065;-73
2023/10/15 03:40:30;;;;;;;0.47;0.08;;;;;;;8.94;64.72;98726.09;5033278;28;20053;-74
2023/10/15 03:43:01;;;;;;;1.45;0.00;;;;;;;8.91;64.50;98729.69;5035216;28;20325;-73
2023/10/15 03:45:29;;;;;;;0.73;0.20;;;;;;;8.89;64.58;98738.47;5033557;28;20133;-73
2023/10/15 03:47:57;;;;;;;0.00;0.00;;;;;;;8.87;64.45;98745.50;5033325;28;20148;-75
2023/10/15 03:50:28;;;;;;;0.45;0.00;;;;;;;8.82;64.56;98750.03;5033980;28;20427;-73
2023/10/15 03:52:56;;;;;;;0.28;0.00;;;;;;;8.80;64.68;98750.13;5037944;28;20546;-73
2023/10/15 03:55:23;;;;;;;0.10;0.00;;;;;;;8.78;64.55;98757.16;5034092;28;20052;-75
2023/10/15 03:57:53;;;;;;;0.00;0.00;;;;;;;8.75;64.43;98776.34;5033474;28;20131;-73
2023/10/15 04:00:34;;;;;;;0.50;0.00;;;;;;;8.71;64.43;98779.16;5033719;28;20506;-72
2023/10/15 04:03:16;;;;;;;0.82;0.00;;;;;;;8.67;64.68;98786.25;5033819;28;20909;-71
2023/10/15 04:05:52;;;;;;;0.93;0.00;;;;;;;8.67;64.88;98791.44;5038329;28;20040;-73
2023/10/15 04:08:19;;;;;;;;;;;;;;;8.66;65.19;98791.53;5035359;28;20051;-74
2023/10/15 04:10:55;;;;;;;0.10;0.00;;;;;;;8.64;65.32;98803.75;5034688;28;19932;-74
2023/10/15 04:13:26;;;;;;;1.48;0.00;;;;;;;8.63;65.00;98805.50;5037693;28;20123;-75
2023/10/15 04:15:54;;;;;;;0.10;0.00;;;;;;;8.62;65.49;98805.56;5036637;28;20405;-75
2023/10/15 04:18:24;;;;;;;0.00;0.00;;;;;;;8.60;65.26;98805.63;5037181;28;20674;-75
2023/10/15 04:20:51;;;;;;;0.47;0.00;;;;;;;8.59;65.45;98813.50;5039549;28;20064;-73
2023/10/15 04:23:30;;;;;;;1.92;0.10;;;;;;;8.58;65.19;98817.88;5024821;28;20068;-73
2023/10/15 04:26:00;;;;;;;0.00;0.00;;;;;;;8.57;65.33;98826.59;5031324;28;20947;-75
2023/10/15 04:28:27;;;;;;;0.08;0.00;;;;;;;8.58;65.50;98832.63;5032780;28;20059;-73
2023/10/15 04:30:56;;;;;;;0.70;0.00;;;;;;;8.57;64.84;98837.00;5036204;28;20123;-73
2023/10/15 04:33:27;;;;;;;0.10;0.00;;;;;;;8.54;65.13;98843.19;5039798;28;20049;-73
2023/10/15 04:35:56;;;;;;;0.10;0.00;;;;;;;8.50;65.04;98845.94;5036877;28;20045;-74
2023/10/15 04:38:28;;;;;;;0.00;0.00;;;;;;;8.52;64.92;98855.41;5033306;28;20046;-74
2023/10/15 04:41:02;;;;;;;0.00;0.00;;;;;;;8.48;65.24;98851.25;5032608;28;20045;-74
2023/10/15 04:43:29;;;;;;;0.10;0.00;;;;;;;8.49;65.63;98865.09;5023139;28;20049;-74
2023/10/15 04:45:57;;;;;;;0.00;0.00;;;;;;;8.49;65.48;98876.34;5034235;28;20072;-74
2023/10/15 04:48:32;;;;;;;1.15;0.00;;;;;;;8.48;65.34;98879.00;5035606;28;20045;-75
2023/10/15 04:51:04;;;;;;;0.00;0.00;;;;;;;8.48;65.67;98885.06;5032870;28;20053;-74
2023/10/15 04:53:31;;;;;;;0.00;0.00;;;;;;;8.47;65.42;98882.50;5034258;28;20052;-74
2023/10/15 04:56:00;;;;;;;0.15;0.00;;;;;;;8.44;65.25;98885.25;5037387;28;20087;-74
2023/10/15 04:58:29;;;;;;;0.80;0.00;;;;;;;8.45;65.48;98889.53;5035091;28;20284;-74
2023/10/15 05:00:59;;;;;;;1.67;0.00;;;;;;;8.45;65.71;98905.13;5035635;28;20052;-73
2023/10/15 05:03:27;;;;;;;0.38;0.00;;;;;;;8.42;65.86;98902.66;5042793;28;20068;-74
2023/10/15 05:05:55;;;;;;;0.22;0.00;;;;;;;8.44;65.50;98911.25;5035675;28;20045;-73
2023/10/15 05:08:24;;;;;;;0.00;0.00;;;;;;;8.41;65.62;98913.97;5040041;28;20065;-71
2023/10/15 05:10:55;;;;;;;1.65;0.00;;;;;;;8.39;65.58;98908.81;5040818;28;20044;-70
2023/10/15 05:13:24;;;;;;;1.65;0.00;;;;;;;8.39;65.35;98915.78;5035630;28;20143;-71
2023/10/15 05:15:52;;;;;;;1.00;0.00;;;;;;;8.36;65.99;98910.66;5040445;28;20131;-71
2023/10/15 05:18:20;;;;;;;1.05;0.00;;;;;;;8.34;65.53;98916.78;5043722;28;20045;-75
2023/10/15 05:20:50;;;;;;;0.00;0.00;;;;;;;8.34;65.71;98919.41;5046196;28;20045;-71
2023/10/15 05:23:17;;;;;;;0.63;0.00;;;;;;;8.33;65.83;98922.88;5043311;28;20041;-71
2023/10/15 05:25:44;;;;;;;2.90;0.00;;;;;;;8.32;66.04;98946.38;5042481;28;20045;-71
2023/10/15 05:28:14;;;;;;;0.08;0.00;;;;;;;8.31;65.82;98949.88;5036996;28;20138;-72
2023/10/15 05:30:41;;;;;;;0.08;0.00;;;;;;;8.29;65.41;98952.53;5042547;28;20407;-72
2023/10/15 05:33:08;;;;;;;0.00;0.00;;;;;;;8.27;65.14;98956.09;5040437;28;20142;-72
2023/10/15 05:35:37;;;;;;;0.80;0.30;;;;;;;8.25;65.72;98958.78;5042833;28;20463;-71
2023/10/15 05:38:08;;;;;;;0.00;0.00;;;;;;;8.24;65.62;98972.66;5041194;28;20095;-71
2023/10/15 05:40:35;;;;;;;0.10;0.00;;;;;;;8.23;65.85;98972.75;5044783;28;20080;-71
2023/10/15 05:43:02;;;;;;;0.05;0.00;;;;;;;8.21;66.03;98975.38;5044197;28;20546;-71
2023/10/15 05:45:28;;;;;;;0.00;0.00;;;;;;;8.21;65.89;98979.75;5044022;28;20052;-71
2023/10/15 05:47:55;;;;;;;0.00;0.00;;;;;;;8.20;65.67;98986.72;5042002;28;20392;-71
2023/10/15 05:50:23;;;;;;;0.70;0.00;;;;;;;8.19;65.73;98991.94;5041518;28;20060;-70
2023/10/15 05:52:50;;;;;;;2.60;0.00;;;;;;;8.17;65.84;99005.03;5041994;28;20057;-71
2023/10/15 05:55:20;;;;;;;0.00;0.00;;;;;;;8.18;65.82;99005.88;5037285;28;20049;-70
2023/10/15 05:57:47;;;;;;;0.00;0.00;;;;;;;8.17;65.60;99005.03;5037238;28;20077;-70
2023/10/15 06:00:26;;;;;;;0.00;0.00;;;;;;;8.14;65.66;99001.69;5034040;28;20045;-70
2023/10/15 06:02:55;;;;;;;0.05;0.00;;;;;;;8.16;65.54;99023.28;5015081;28;20049;-73
2023/10/15 06:05:23;;;;;;;1.45;0.00;;;;;;;8.15;65.35;99030.25;5040188;28;20471;-70
2023/10/15 06:07:50;;;;;;;0.00;0.00;;;;;;;8.13;65.13;99037.25;5038836;28;20546;-71
2023/10/15 06:10:17;;;;;;;0.40;0.15;;;;;;;8.15;65.80;99051.06;5037023;28;20057;-70
2023/10/15 06:12:45;;;;;;;0.00;0.00;;;;;;;8.15;65.54;99058.00;5035285;28;20041;-71
2023/10/15 06:15:15;;;;;;;0.38;0.00;;;;;;;8.15;65.39;99061.44;5038824;28;20045;-69
2023/10/15 06:17:42;;;;;;;0.85;0.00;;;;;;;8.15;65.30;99065.81;5038419;28;20041;-69
2023/10/15 06:20:13;;;;;;;0.70;0.00;;;;;;;8.15;65.42;99071.84;5036861;28;20047;-70
2023/10/15 06:22:40;;;;;;;0.65;0.00;;;;;;;8.14;65.74;99080.56;5039027;28;20601;-70
2023/10/15 06:25:08;;;;;;;0.00;0.00;;;;;;;8.11;65.49;99080.66;5036489;28;20050;-70
2023/10/15 06:27:37;;;;;;;0.00;0.00;;;;;;;8.13;65.65;99086.66;5036507;28;20407;-70
2023/10/15 06:30:09;;;;;;;0.30;0.00;;;;;;;8.14;65.02;99087.50;5045253;28;20053;-84
2023/10/15 06:32:36;;;;;;;0.00;0.00;;;;;;;8.07;65.47;99089.47;5049185;28;20132;-75
2023/10/15 06:35:03;;;;;;;1.20;0.00;;;;;;;8.13;65.12;99097.06;5050791;28;20083;-81
2023/10/15 06:37:30;;;;;;;1.38;0.00;;;;;;;8.10;65.12;99104.97;5052282;28;20037;-82
2023/10/15 06:39:57;;;;;;;0.00;0.00;;;;;;;8.12;65.15;99116.19;5044084;28;20043;-83
2023/10/15 06:42:25;;;;;;;0.43;0.00;;;;;;;8.04;65.25;99106.03;5050971;28;20055;-82
2023/10/15 06:44:52;;;;;;;0.60;0.00;;;;;;;8.13;65.14;99133.47;5051322;28;20045;-84
2023/10/15 06:47:21;;;;;;;0.00;0.00;;;;;;;8.13;65.01;99133.47;5044342;28;20051;-82
2023/10/15 06:49:53;;;;;;;0.00;0.00;;;;;;;8.11;64.79;99140.47;5046315;28;20052;-83
2023/10/15 06:52:20;;;;;;;1.40;0.00;;;;;;;8.05;65.26;99138.97;5048627;28;20702;-82
2023/10/15 06:54:47;;;;;;;0.20;0.00;;;;;;;8.11;65.11;99145.66;5049347;28;20052;-84
2023/10/15 06:57:16;;;;;;;0.00;0.00;;;;;;;8.10;65.26;99151.78;5044271;28;20041;-82
2023/10/15 06:59:43;;;;;;;1.00;0.10;;;;;;;8.11;64.65;99148.28;5046382;28;20052;-83
2023/10/15 07:02:10;;;;;;;0.35;0.00;;;;;;;8.11;64.76;99156.94;5047914;28;20542;-83
2023/10/15 07:04:38;;;;;;;0.00;0.00;;;;;;;8.11;64.52;99156.94;5044816;28;20049;-82
2023/10/15 07:07:05;;;;;;;0.20;0.00;;;;;;;8.12;64.66;99163.00;5047272;28;20040;-82
2023/10/15 07:09:32;;;;;;;0.10;0.00;;;;;;;8.13;64.97;99167.28;5021969;28;20059;-82
2023/10/15 07:11:59;;;;;;;0.00;0.00;;;;;;;8.15;65.01;99173.28;5044384;28;20051;-82
2023/10/15 07:14:26;;;;;;;0.00;0.00;;;;;;;8.15;65.05;99173.28;5048631;28;20087;-82
2023/10/15 07:16:53;;;;;;;0.00;0.00;;;;;;;8.18;65.06;99177.53;5046647;28;20044;-82
2023/10/15 07:19:20;;;;;;;2.08;0.00;;;;;;;8.19;65.01;99181.81;5050704;28;20128;-81
2023/10/15 07:21:49;;;;;;;0.00;0.00;;;;;;;8.11;64.42;99169.94;5045746;28;20053;-83
2023/10/15 07:24:16;;;;;;;0.95;0.00;;;;;;;8.23;64.97;99192.09;5049335;28;20056;-81
2023/10/15 07:26:43;;;;;;;0.88;0.00;;;;;;;8.28;64.95;99197.13;5049937;28;20531;-82
2023/10/15 07:29:09;;;;;;;0.00;0.00;;;;;;;8.31;64.87;99199.59;5045072;28;20049;-76
2023/10/15 07:31:38;;;;;;;0.63;0.00;;;;;;;8.33;64.64;99196.06;5027843;28;20045;-76
2023/10/15 07:34:05;;;;;;;0.00;0.00;;;;;;;8.38;64.16;99198.50;5036416;28;20115;-76
2023/10/15 07:36:32;;;;;;;0.00;0.00;;;;;;;8.43;64.55;99204.44;5038219;28;20049;-75
2023/10/15 07:39:00;;;;;;;0.50;0.00;;;;;;;8.46;64.62;99212.13;5041592;28;20047;-77
2023/10/15 07:41:30;;;;;;;0.15;0.00;;;;;;;8.39;64.44;99199.38;5042656;28;20480;-78
2023/10/15 07:43:57;;;;;;;0.00;0.00;;;;;;;8.55;64.82;99217.00;5045979;28;20063;-77
2023/10/15 07:46:24;;;;;;;2.63;0.00;;;;;;;8.60;64.22;99216.88;5039430;28;20052;-77
2023/10/15 07:48:52;;;;;;;0.00;0.00;;;;;;;8.64;64.23;99223.66;5044413;28;20053;-77
2023/10/15 07:51:19;;;;;;;0.00;0.00;;;;;;;8.70;64.59;99233.84;5046014;28;20049;-77
2023/10/15 07:53:46;;;;;;;0.00;0.00;;;;;;;8.73;64.45;99233.72;5046889;28;20052;-77
2023/10/15 07:56:14;;;;;;;1.65;0.00;;;;;;;8.81;64.31;99250.84;5046856;28;20045;-78
2023/10/15 07:58:41;;;;;;;0.20;0.00;;;;;;;8.85;64.43;99261.09;5048201;28;20041;-78
2023/10/15 08:01:08;;;;;;;0.00;0.00;;;;;;;8.85;64.10;99245.47;5044399;28;20099;-78
2023/10/15 08:03:35;;;;;;;0.10;0.00;;;;;;;8.93;63.63;99255.59;5044071;28;20103;-77
2023/10/15 08:06:02;;;;;;;0.20;0.00;;;;;;;8.97;63.80;99265.03;5040784;28;20045;-78
2023/10/15 08:08:29;;;;;;;0.00;0.00;;;;;;;8.98;63.94;99261.50;5044165;28;20076;-78
2023/10/15 08:10:57;;;;;;;1.65;0.00;;;;;;;9.03;63.35;99272.59;5045071;28;20061;-79
2023/10/15 08:13:25;;;;;;;1.35;0.32;;;;;;;9.08;63.39;99275.03;5039491;28;20045;-79
2023/10/15 08:15:52;;;;;;;0.05;0.00;;;;;;;9.11;63.57;99272.34;5041924;28;20049;-78
2023/10/15 08:18:20;;;;;;;0.60;0.05;;;;;;;9.14;63.24;99280.88;5045033;28;20082;-78
2023/10/15 08:20:47;;;;;;;0.15;0.00;;;;;;;9.17;62.91;99279.94;5043374;28;20044;-78
2023/10/15 08:23:14;;;;;;;0.65;0.03;;;;;;;9.18;62.97;99289.44;5045524;28;20135;-78
2023/10/15 08:25:41;;;;;;;0.03;0.00;;;;;;;9.22;62.59;99296.22;5043672;28;20056;-78
2023/10/15 08:28:10;;;;;;;0.10;0.00;;;;;;;9.23;62.74;99292.72;5045554;28;20041;-78
2023/10/15 08:30:41;;;;;;;1.30;0.00;;;;;;;9.27;62.86;99301.28;5044773;28;20048;-78
2023/10/15 08:33:11;;;;;;;0.45;0.00;;;;;;;9.29;62.32;99305.53;5045836;28;20052;-77
2023/10/15 08:35:38;;;;;;;0.00;0.00;;;;;;;9.30;62.54;99309.81;5046872;28;20063;-77
2023/10/15 08:38:07;;;;;;;0.03;0.00;;;;;;;9.35;62.61;99314.88;5051853;28;20133;-76
2023/10/15 08:40:40;;;;;;;1.75;0.00;;;;;;;9.38;62.39;99330.38;5048555;28;20489;-76
2023/10/15 08:43:12;;;;;;;1.20;0.00;;;;;;;9.35;62.14;99326.13;5043438;28;20055;-77
2023/10/15 08:45:43;;;;;;;0.73;0.20;;;;;;;9.39;61.66;99337.28;5046954;28;20476;-78
2023/10/15 08:48:12;;;;;;;0.35;0.00;;;;;;;9.42;61.38;99337.19;5048224;28;20073;-76
2023/10/15 08:50:40;;;;;;;0.10;0.00;;;;;;;9.40;61.37;99344.22;5038874;28;20048;-75
2023/10/15 08:53:08;;;;;;;0.10;0.00;;;;;;;9.44;61.39;99353.63;5041306;28;20103;-76
2023/10/15 08:55:37;;;;;;;0.10;0.00;;;;;;;9.36;61.37;99353.03;5040597;28;20118;-76
2023/10/15 08:58:07;;;;;;;0.35;0.00;;;;;;;9.45;61.00;99363.16;5035773;28;20052;-76
2023/10/15 09:00:36;;;;;;;2.05;0.00;;;;;;;9.45;60.87;99370.97;5039286;28;20054;-72
2023/10/15 09:03:05;;;;;;;0.75;0.00;;;;;;;9.44;60.87;99371.88;5034134;28;20052;-71
2023/10/15 09:05:34;;;;;;;0.10;0.00;;;;;;;9.46;60.32;99380.47;5042947;28;20049;-72
2023/10/15 09:08:06;;;;;;;0.10;0.00;;;;;;;9.43;60.66;99381.44;5039401;28;20071;-72
2023/10/15 09:10:33;;;;;;;0.10;0.00;;;;;;;9.46;60.54;99393.53;5041039;28;20080;-72
2023/10/15 09:13:00;;;;;;;1.48;0.00;;;;;;;9.48;59.99;99399.53;5033801;28;20055;-72
2023/10/15 09:15:29;;;;;;;0.45;0.10;;;;;;;9.48;59.84;99404.75;5037359;28;20048;-72
2023/10/15 09:17:58;;;;;;;0.20;0.00;;;;;;;9.48;60.21;99391.72;5039696;28;20951;-72
2023/10/15 09:20:27;;;;;;;0.43;0.00;;;;;;;9.51;59.56;99409.00;5035009;28;20056;-71
2023/10/15 09:22:57;;;;;;;0.00;0.00;;;;;;;9.55;59.43;99405.38;5037857;28;20052;-72
2023/10/15 09:25:27;;;;;;;0.00;0.00;;;;;;;9.62;60.05;99417.25;5037288;28;20052;-72
2023/10/15 09:27:54;;;;;;;0.00;0.00;;;;;;;9.72;59.59;99412.56;5040484;28;20040;-72
2023/10/15 09:30:25;;;;;;;0.40;0.00;;;;;;;9.80;59.11;99431.41;5040474;28;20055;-72
2023/10/15 09:32:54;;;;;;;0.00;0.00;;;;;;;9.82;59.33;99420.00;5040282;28;20056;-72
2023/10/15 09:35:22;;;;;;;0.68;0.10;;;;;;;9.83;58.54;99439.13;5040678;28;20045;-72
2023/10/15 09:37:53;;;;;;;0.35;0.10;;;;;;;9.82;58.54;99429.59;5034638;28;20155;-73
2023/10/15 09:40:23;;;;;;;0.73;0.10;;;;;;;9.89;58.56;99436.28;5038502;28;20061;-71
2023/10/15 09:42:53;;;;;;;0.20;0.00;;;;;;;9.90;58.98;99441.44;5035302;28;20083;-73
2023/10/15 09:45:23;;;;;;;1.70;0.00;;;;;;;9.92;58.43;99451.81;5042846;28;20052;-72
2023/10/15 09:47:54;;;;;;;0.35;0.00;;;;;;;9.91;58.72;99455.34;5036455;28;20055;-72
2023/10/15 09:50:25;;;;;;;3.80;0.10;;;;;;;9.90;58.30;99459.72;5040748;28;20100;-73
2023/10/15 09:52:58;;;;;;;0.00;0.00;;;;;;;9.91;58.49;99455.34;5035763;28;20088;-72
2023/10/15 09:55:26;;;;;;;1.38;0.00;;;;;;;9.91;58.30;99461.41;5040332;28;20910;-72
2023/10/15 09:57:58;;;;;;;0.10;0.05;;;;;;;9.89;58.50;99463.19;5042510;28;20488;-72
2023/10/15 10:00:59;;;;;;;1.10;0.00;;;;;;;9.94;58.34;99470.88;5042778;28;20049;-77
2023/10/15 10:04:06;;;;;;;0.80;0.00;;;;;;;9.94;58.23;99481.31;5045587;28;20041;-77
2023/10/15 10:06:51;;;;;;;0.30;0.10;;;;;;;9.91;58.18;99470.97;5049059;28;20041;-77
2023/10/15 10:09:38;;;;;;;2.58;0.10;;;;;;;9.97;58.34;99480.34;5041601;28;20069;-71
2023/10/15 10:12:25;;;;;;;0.88;0.10;;;;;;;9.98;58.15;99493.31;5034130;28;20055;-71
2023/10/15 10:15:12;;;;;;;1.00;0.00;;;;;;;9.96;58.11;99489.94;5036151;28;20110;-71
2023/10/15 10:17:40;;;;;;;1.13;0.05;;;;;;;9.98;58.28;99503.75;5039283;28;20166;-71
2023/10/15 10:20:11;;;;;;;0.50;0.00;;;;;;;9.97;58.28;99507.28;5036858;28;20041;-72
2023/10/15 10:22:39;;;;;;;1.15;0.10;;;;;;;10.00;57.52;99522.81;5038976;28;20045;-72
2023/10/15 10:25:11;;;;;;;0.30;0.00;;;;;;;9.99;57.80;99513.31;5037025;28;20048;-71
2023/10/15 10:27:42;;;;;;;1.27;0.00;;;;;;;10.01;57.76;99516.69;5040486;28;20504;-70
2023/10/15 10:30:26;;;;;;;22.02;0.52;;;;;;;10.03;57.86;99524.47;5037261;28;20045;-70
2023/10/15 10:32:54;;;;;;;0.40;0.05;;;;;;;10.03;57.89;99519.25;5037122;28;20076;-70
2023/10/15 10:35:23;;;;;;;1.67;0.10;;;;;;;10.04;57.74;99521.78;5035420;28;20049;-70
2023/10/15 10:38:10;;;;;;;0.55;0.20;;;;;;;10.07;57.95;99528.66;5035626;28;20491;-71
2023/10/15 10:41:04;;;;;;;1.38;0.15;;;;;;;10.04;58.36;99534.81;5040084;28;20390;-71
2023/10/15 10:43:32;;;;;;;0.22;0.10;;;;;;;10.07;57.67;99534.72;5034531;28;20397;-72
2023/10/15 10:46:01;;;;;;;2.55;0.10;;;;;;;10.10;57.51;99544.19;5037393;28;20041;-71
2023/10/15 10:48:29;;;;;;;1.02;0.10;;;;;;;10.10;57.65;99547.69;5039864;28;20072;-72
2023/10/15 10:51:18;;;;;;;2.38;0.20;;;;;;;10.09;57.41;99543.34;5042080;28;20083;-71
2023/10/15 10:54:25;;;;;;;3.85;0.30;;;;;;;10.14;58.02;99556.25;5039713;28;20138;-74
2023/10/15 10:57:04;;;;;;;1.60;0.40;;;;;;;10.13;57.57;99557.13;5040000;28;20044;-69
2023/10/15 10:59:31;;;;;;;1.55;0.10;;;;;;;10.14;57.69;99564.91;5036451;28;20676;-71
2023/10/15 11:01:59;;;;;;;1.73;0.20;;;;;;;10.14;56.93;99557.09;5037772;28;20573;-70
2023/10/15 11:04:26;;;;;;;3.58;0.50;;;;;;;10.10;57.15;99560.72;5038699;28;20091;-70
2023/10/15 11:06:53;;;;;;;2.42;0.40;;;;;;;10.17;57.02;99573.56;5034048;28;20045;-70
2023/10/15 11:09:20;;;;;;;3.53;0.20;;;;;;;10.18;57.09;99578.69;5040340;28;20424;-75
2023/10/15 11:11:48;;;;;;;0.28;0.10;;;;;;;10.18;57.61;99575.25;5036111;28;20103;-75
2023/10/15 11:14:18;;;;;;;0.28;0.10;;;;;;;10.22;57.07;99587.28;5043203;28;20087;-74
2023/10/15 11:16:46;;;;;;;1.80;0.20;;;;;;;10.24;57.59;99577.63;5027998;28;20465;-77
2023/10/15 11:19:17;;;;;;;1.30;0.10;;;;;;;10.22;56.64;99590.75;5045217;28;20088;-80
2023/10/15 11:21:44;;;;;;;0.98;0.10;;;;;;;10.24;56.71;99588.06;5051248;28;20045;-80
2023/10/15 11:24:12;;;;;;;0.77;0.10;;;;;;;10.25;56.60;99595.00;5050531;28;20060;-81
2023/10/15 11:26:41;;;;;;;0.80;0.00;;;;;;;10.25;56.23;99601.06;5048736;28;20041;-80
2023/10/15 11:29:10;;;;;;;1.52;0.10;;;;;;;10.26;56.60;99609.75;5048062;28;20041;-80
2023/10/15 11:31:42;;;;;;;0.20;0.20;;;;;;;10.27;56.17;99603.63;5049218;28;20462;-81
2023/10/15 11:34:11;;;;;;;0.93;0.10;;;;;;;10.27;55.86;99608.88;5046306;28;20440;-81
2023/10/15 11:36:43;;;;;;;3.13;0.10;;;;;;;10.27;55.91;99609.72;5044597;28;20052;-80
2023/10/15 11:39:18;;;;;;;1.40;0.10;;;;;;;10.27;56.07;99619.31;5046631;28;20057;-81
2023/10/15 11:41:50;;;;;;;0.47;0.10;;;;;;;10.28;55.95;99615.81;5046641;28;20446;-81
2023/10/15 11:44:25;;;;;;;1.77;0.35;;;;;;;10.28;56.16;99621.88;5043593;28;20419;-81
2023/10/15 11:46:55;;;;;;;0.95;0.20;;;;;;;10.27;56.12;99624.53;5043581;28;20412;-81
2023/10/15 11:49:24;;;;;;;0.88;0.20;;;;;;;10.28;55.53;99636.69;5047165;28;20041;-81
2023/10/15 11:51:55;;;;;;;1.35;0.20;;;;;;;10.26;55.71;99638.47;5049101;28;20098;-81
2023/10/15 11:54:25;;;;;;;3.55;0.20;;;;;;;10.26;54.82;99643.69;5047784;28;20045;-81